sensor_id;sensor_type;location;lat;lon;timestamp;temperature;humidity
12434;DHT22;6281;49.038;8.372;2022-12-07T00:01:10;5.30;99.90
12434;DHT22;6281;49.038;8.372;2022-12-07T00:03:38;5.40;99.90
12434;DHT22;6281;49.038;8.372;2022-12-07T00:06:07;5.40;99.90
12434;DHT22;6281;49.038;8.372;2022-12-07T00:08:34;5.60;99.90
12434;DHT22;6281;49.038;8.372;2022-12-07T00:11:02;5.70;99.90
12434;DHT22;6281;49.038;8.372;2022-12-07T00:13:29;5.60;99.90
12434;DHT22;6281;49.038;8.372;2022-12-07T00:16:01;5.50;99.90
12434;DHT22;6281;49.038;8.372;2022-12-07T00:18:28;5.50;99.90
12434;DHT22;6281;49.038;8.372;2022-12-07T00:20:59;5.50;99.90
12434;DHT22;6281;49.038;8.372;2022-12-07T00:23:27;5.60;99.90
12434;DHT22;6281;49.038;8.372;2022-12-07T00:25:53;5.60;99.90
12434;DHT22;6281;49.038;8.372;2022-12-07T00:28:20;5.60;99.90
12434;DHT22;6281;49.038;8.372;2022-12-07T00:30:47;5.60;99.90
12434;DHT22;6281;49.038;8.372;2022-12-07T00:33:15;5.60;99.90
12434;DHT22;6281;49.038;8.372;2022-12-07T00:35:42;5.50;99.90
12434;DHT22;6281;49.038;8.372;2022-12-07T00:38:09;5.20;99.90
12434;DHT22;6281;49.038;8.372;2022-12-07T00:40:36;4.90;99.90
12434;DHT22;6281;49.038;8.372;2022-12-07T00:43:03;4.80;99.90
12434;DHT22;6281;49.038;8.372;2022-12-07T00:45:30;4.70;99.90
12434;DHT22;6281;49.038;8.372;2022-12-07T00:47:57;5.00;99.90
12434;DHT22;6281;49.038;8.372;2022-12-07T00:50:25;4.80;99.90
12434;DHT22;6281;49.038;8.372;2022-12-07T00:52:52;4.70;99.90
12434;DHT22;6281;49.038;8.372;2022-12-07T00:55:19;4.50;99.90
12434;DHT22;6281;49.038;8.372;2022-12-07T00:57:46;4.60;99.90
12434;DHT22;6281;49.038;8.372;2022-12-07T01:00:13;4.80;99.90
12434;DHT22;6281;49.038;8.372;2022-12-07T01:02:40;4.90;99.90
12434;DHT22;6281;49.038;8.372;2022-12-07T01:05:27;4.80;99.90
12434;DHT22;6281;49.038;8.372;2022-12-07T01:07:54;4.50;99.90
12434;DHT22;6281;49.038;8.372;2022-12-07T01:10:21;4.70;99.90
12434;DHT22;6281;49.038;8.372;2022-12-07T01:12:47;4.50;99.90
12434;DHT22;6281;49.038;8.372;2022-12-07T01:15:15;4.30;99.90
12434;DHT22;6281;49.038;8.372;2022-12-07T01:17:42;4.30;99.90
12434;DHT22;6281;49.038;8.372;2022-12-07T01:20:10;4.30;99.90
12434;DHT22;6281;49.038;8.372;2022-12-07T01:22:39;4.50;99.90
12434;DHT22;6281;49.038;8.372;2022-12-07T01:25:07;4.70;99.90
12434;DHT22;6281;49.038;8.372;2022-12-07T01:27:35;4.30;99.90
12434;DHT22;6281;49.038;8.372;2022-12-07T01:30:04;4.50;99.90
12434;DHT22;6281;49.038;8.372;2022-12-07T01:32:31;4.10;99.90
12434;DHT22;6281;49.038;8.372;2022-12-07T01:34:58;4.10;99.90
12434;DHT22;6281;49.038;8.372;2022-12-07T01:37:25;4.10;99.90
12434;DHT22;6281;49.038;8.372;2022-12-07T01:39:54;4.40;99.90
12434;DHT22;6281;49.038;8.372;2022-12-07T01:42:20;4.00;99.90
12434;DHT22;6281;49.038;8.372;2022-12-07T01:47:57;4.20;99.90
12434;DHT22;6281;49.038;8.372;2022-12-07T01:50:26;4.10;99.90
12434;DHT22;6281;49.038;8.372;2022-12-07T01:52:59;4.20;99.90
12434;DHT22;6281;49.038;8.372;2022-12-07T01:55:29;4.30;99.90
12434;DHT22;6281;49.038;8.372;2022-12-07T01:57:56;4.20;99.90
12434;DHT22;6281;49.038;8.372;2022-12-07T02:00:24;4.10;99.90
12434;DHT22;6281;49.038;8.372;2022-12-07T02:02:54;4.20;99.90
12434;DHT22;6281;49.038;8.372;2022-12-07T02:05:23;4.00;99.90
12434;DHT22;6281;49.038;8.372;2022-12-07T02:07:51;4.20;99.90
12434;DHT22;6281;49.038;8.372;2022-12-07T02:10:22;4.10;99.90
12434;DHT22;6281;49.038;8.372;2022-12-07T02:12:55;4.10;99.90
12434;DHT22;6281;49.038;8.372;2022-12-07T02:15:25;4.10;99.90
12434;DHT22;6281;49.038;8.372;2022-12-07T02:17:58;4.10;99.90
12434;DHT22;6281;49.038;8.372;2022-12-07T02:20:29;4.10;99.90
12434;DHT22;6281;49.038;8.372;2022-12-07T02:26:39;4.00;99.90
12434;DHT22;6281;49.038;8.372;2022-12-07T02:29:18;4.00;99.90
12434;DHT22;6281;49.038;8.372;2022-12-07T02:31:53;4.10;99.90
12434;DHT22;6281;49.038;8.372;2022-12-07T02:34:33;4.10;99.90
12434;DHT22;6281;49.038;8.372;2022-12-07T02:37:06;4.20;99.90
12434;DHT22;6281;49.038;8.372;2022-12-07T02:39:42;4.10;99.90
12434;DHT22;6281;49.038;8.372;2022-12-07T02:42:15;4.00;99.90
12434;DHT22;6281;49.038;8.372;2022-12-07T02:44:46;4.00;99.90
12434;DHT22;6281;49.038;8.372;2022-12-07T02:47:16;4.10;99.90
12434;DHT22;6281;49.038;8.372;2022-12-07T02:49:44;4.10;99.90
12434;DHT22;6281;49.038;8.372;2022-12-07T02:52:11;4.10;99.90
12434;DHT22;6281;49.038;8.372;2022-12-07T02:54:38;3.90;99.90
12434;DHT22;6281;49.038;8.372;2022-12-07T02:57:15;4.00;99.90
12434;DHT22;6281;49.038;8.372;2022-12-07T02:59:58;3.80;99.90
12434;DHT22;6281;49.038;8.372;2022-12-07T03:02:31;3.90;99.90
12434;DHT22;6281;49.038;8.372;2022-12-07T03:05:12;4.00;99.90
12434;DHT22;6281;49.038;8.372;2022-12-07T03:07:45;3.80;99.90
12434;DHT22;6281;49.038;8.372;2022-12-07T03:10:18;4.00;99.90
12434;DHT22;6281;49.038;8.372;2022-12-07T03:12:54;4.00;99.90
12434;DHT22;6281;49.038;8.372;2022-12-07T03:15:28;3.90;99.90
12434;DHT22;6281;49.038;8.372;2022-12-07T03:17:58;3.90;99.90
12434;DHT22;6281;49.038;8.372;2022-12-07T03:20:27;3.90;99.90
12434;DHT22;6281;49.038;8.372;2022-12-07T03:22:56;3.90;99.90
12434;DHT22;6281;49.038;8.372;2022-12-07T03:25:24;4.00;99.90
12434;DHT22;6281;49.038;8.372;2022-12-07T03:27:54;3.90;99.90
12434;DHT22;6281;49.038;8.372;2022-12-07T03:30:26;3.90;99.90
12434;DHT22;6281;49.038;8.372;2022-12-07T03:32:58;4.00;99.90
12434;DHT22;6281;49.038;8.372;2022-12-07T03:35:28;3.90;99.90
12434;DHT22;6281;49.038;8.372;2022-12-07T03:38:00;3.90;99.90
12434;DHT22;6281;49.038;8.372;2022-12-07T03:40:33;3.80;99.90
12434;DHT22;6281;49.038;8.372;2022-12-07T03:43:02;3.70;99.90
12434;DHT22;6281;49.038;8.372;2022-12-07T03:45:36;3.80;99.90
12434;DHT22;6281;49.038;8.372;2022-12-07T03:48:08;3.70;99.90
12434;DHT22;6281;49.038;8.372;2022-12-07T03:50:40;3.60;99.90
12434;DHT22;6281;49.038;8.372;2022-12-07T03:53:13;3.70;99.90
12434;DHT22;6281;49.038;8.372;2022-12-07T03:55:43;3.70;99.90
12434;DHT22;6281;49.038;8.372;2022-12-07T03:58:13;3.70;99.90
12434;DHT22;6281;49.038;8.372;2022-12-07T04:00:44;3.80;99.90
12434;DHT22;6281;49.038;8.372;2022-12-07T04:03:11;3.80;99.90
12434;DHT22;6281;49.038;8.372;2022-12-07T04:05:39;3.70;99.90
12434;DHT22;6281;49.038;8.372;2022-12-07T04:08:06;3.50;99.90
12434;DHT22;6281;49.038;8.372;2022-12-07T04:10:33;3.50;99.90
12434;DHT22;6281;49.038;8.372;2022-12-07T04:13:00;3.80;99.90
12434;DHT22;6281;49.038;8.372;2022-12-07T04:15:27;3.70;99.90
12434;DHT22;6281;49.038;8.372;2022-12-07T04:17:56;3.60;99.90
12434;DHT22;6281;49.038;8.372;2022-12-07T04:20:22;3.90;99.90
12434;DHT22;6281;49.038;8.372;2022-12-07T04:22:49;3.90;99.90
12434;DHT22;6281;49.038;8.372;2022-12-07T04:25:17;3.80;99.90
12434;DHT22;6281;49.038;8.372;2022-12-07T04:27:43;3.60;99.90
12434;DHT22;6281;49.038;8.372;2022-12-07T04:30:11;3.60;99.90
12434;DHT22;6281;49.038;8.372;2022-12-07T04:32:38;3.70;99.90
12434;DHT22;6281;49.038;8.372;2022-12-07T04:35:07;3.80;99.90
12434;DHT22;6281;49.038;8.372;2022-12-07T04:37:34;3.70;99.90
12434;DHT22;6281;49.038;8.372;2022-12-07T04:40:01;3.70;99.90
12434;DHT22;6281;49.038;8.372;2022-12-07T04:42:28;3.60;99.90
12434;DHT22;6281;49.038;8.372;2022-12-07T04:44:55;3.70;99.90
12434;DHT22;6281;49.038;8.372;2022-12-07T04:47:22;3.70;99.90
12434;DHT22;6281;49.038;8.372;2022-12-07T04:49:49;3.70;99.90
12434;DHT22;6281;49.038;8.372;2022-12-07T04:52:17;3.70;99.90
12434;DHT22;6281;49.038;8.372;2022-12-07T04:54:44;3.80;99.90
12434;DHT22;6281;49.038;8.372;2022-12-07T04:57:11;3.80;99.90
12434;DHT22;6281;49.038;8.372;2022-12-07T04:59:38;3.60;99.90
12434;DHT22;6281;49.038;8.372;2022-12-07T05:02:05;3.60;99.90
12434;DHT22;6281;49.038;8.372;2022-12-07T05:04:31;3.80;99.90
12434;DHT22;6281;49.038;8.372;2022-12-07T05:06:58;3.70;99.90
12434;DHT22;6281;49.038;8.372;2022-12-07T05:09:27;3.80;99.90
12434;DHT22;6281;49.038;8.372;2022-12-07T05:11:54;3.70;99.90
12434;DHT22;6281;49.038;8.372;2022-12-07T05:14:21;3.70;99.90
12434;DHT22;6281;49.038;8.372;2022-12-07T05:16:49;3.60;99.90
12434;DHT22;6281;49.038;8.372;2022-12-07T05:19:17;3.80;99.90
12434;DHT22;6281;49.038;8.372;2022-12-07T05:21:44;3.80;99.90
12434;DHT22;6281;49.038;8.372;2022-12-07T05:24:13;3.70;99.90
12434;DHT22;6281;49.038;8.372;2022-12-07T05:26:41;3.70;99.90
12434;DHT22;6281;49.038;8.372;2022-12-07T05:29:11;3.80;99.90
12434;DHT22;6281;49.038;8.372;2022-12-07T05:31:38;3.70;99.90
12434;DHT22;6281;49.038;8.372;2022-12-07T05:34:05;3.70;99.90
12434;DHT22;6281;49.038;8.372;2022-12-07T05:36:33;3.80;99.90
12434;DHT22;6281;49.038;8.372;2022-12-07T05:38:59;3.80;99.90
12434;DHT22;6281;49.038;8.372;2022-12-07T05:41:26;3.90;99.90
12434;DHT22;6281;49.038;8.372;2022-12-07T05:44:12;3.60;99.90
12434;DHT22;6281;49.038;8.372;2022-12-07T05:46:39;3.80;99.90
12434;DHT22;6281;49.038;8.372;2022-12-07T05:49:06;3.80;99.90
12434;DHT22;6281;49.038;8.372;2022-12-07T05:51:33;3.80;99.90
12434;DHT22;6281;49.038;8.372;2022-12-07T05:54:00;3.60;99.90
12434;DHT22;6281;49.038;8.372;2022-12-07T05:56:27;3.70;99.90
12434;DHT22;6281;49.038;8.372;2022-12-07T05:58:54;3.70;99.90
12434;DHT22;6281;49.038;8.372;2022-12-07T06:01:40;3.80;99.90
12434;DHT22;6281;49.038;8.372;2022-12-07T06:04:07;3.80;99.90
12434;DHT22;6281;49.038;8.372;2022-12-07T06:06:34;3.90;99.90
12434;DHT22;6281;49.038;8.372;2022-12-07T06:09:01;3.70;99.90
12434;DHT22;6281;49.038;8.372;2022-12-07T06:11:28;3.80;99.90
12434;DHT22;6281;49.038;8.372;2022-12-07T06:14:12;3.70;99.90
12434;DHT22;6281;49.038;8.372;2022-12-07T06:16:41;3.70;99.90
12434;DHT22;6281;49.038;8.372;2022-12-07T06:19:08;3.60;99.90
12434;DHT22;6281;49.038;8.372;2022-12-07T06:21:35;3.70;99.90
12434;DHT22;6281;49.038;8.372;2022-12-07T06:24:02;3.80;99.90
12434;DHT22;6281;49.038;8.372;2022-12-07T06:26:29;3.70;99.90
12434;DHT22;6281;49.038;8.372;2022-12-07T06:28:56;3.80;99.90
12434;DHT22;6281;49.038;8.372;2022-12-07T06:31:23;3.80;99.90
12434;DHT22;6281;49.038;8.372;2022-12-07T06:33:51;3.70;99.90
12434;DHT22;6281;49.038;8.372;2022-12-07T06:36:18;3.80;99.90
12434;DHT22;6281;49.038;8.372;2022-12-07T06:38:45;3.80;99.90
12434;DHT22;6281;49.038;8.372;2022-12-07T06:41:12;3.70;99.90
12434;DHT22;6281;49.038;8.372;2022-12-07T06:43:39;3.70;99.90
12434;DHT22;6281;49.038;8.372;2022-12-07T06:46:06;3.70;99.90
12434;DHT22;6281;49.038;8.372;2022-12-07T06:48:33;3.80;99.90
12434;DHT22;6281;49.038;8.372;2022-12-07T06:51:01;3.70;99.90
12434;DHT22;6281;49.038;8.372;2022-12-07T06:53:28;3.70;99.90
12434;DHT22;6281;49.038;8.372;2022-12-07T06:55:55;3.70;99.90
12434;DHT22;6281;49.038;8.372;2022-12-07T06:58:22;3.70;99.90
12434;DHT22;6281;49.038;8.372;2022-12-07T07:00:49;3.70;99.90
12434;DHT22;6281;49.038;8.372;2022-12-07T07:03:17;3.70;99.90
12434;DHT22;6281;49.038;8.372;2022-12-07T07:05:44;3.70;99.90
12434;DHT22;6281;49.038;8.372;2022-12-07T07:08:13;3.70;99.90
12434;DHT22;6281;49.038;8.372;2022-12-07T07:10:40;3.70;99.90
12434;DHT22;6281;49.038;8.372;2022-12-07T07:13:07;3.70;99.90
12434;DHT22;6281;49.038;8.372;2022-12-07T07:15:34;3.80;99.90
12434;DHT22;6281;49.038;8.372;2022-12-07T07:18:01;3.70;99.90
12434;DHT22;6281;49.038;8.372;2022-12-07T07:20:29;3.70;99.90
12434;DHT22;6281;49.038;8.372;2022-12-07T07:22:56;3.70;99.90
12434;DHT22;6281;49.038;8.372;2022-12-07T07:25:25;3.60;99.90
12434;DHT22;6281;49.038;8.372;2022-12-07T07:27:52;3.70;99.90
12434;DHT22;6281;49.038;8.372;2022-12-07T07:30:19;3.80;99.90
12434;DHT22;6281;49.038;8.372;2022-12-07T07:32:46;3.70;99.90
12434;DHT22;6281;49.038;8.372;2022-12-07T07:35:13;3.60;99.90
12434;DHT22;6281;49.038;8.372;2022-12-07T07:37:40;3.80;99.90
12434;DHT22;6281;49.038;8.372;2022-12-07T07:40:08;3.70;99.90
12434;DHT22;6281;49.038;8.372;2022-12-07T07:42:36;3.70;99.90
12434;DHT22;6281;49.038;8.372;2022-12-07T07:45:04;3.80;99.90
12434;DHT22;6281;49.038;8.372;2022-12-07T07:47:31;3.70;99.90
12434;DHT22;6281;49.038;8.372;2022-12-07T07:49:58;3.70;99.90
12434;DHT22;6281;49.038;8.372;2022-12-07T07:52:25;3.70;99.90
12434;DHT22;6281;49.038;8.372;2022-12-07T07:54:52;3.80;99.90
12434;DHT22;6281;49.038;8.372;2022-12-07T07:57:19;3.70;99.90
12434;DHT22;6281;49.038;8.372;2022-12-07T07:59:48;3.80;99.90
12434;DHT22;6281;49.038;8.372;2022-12-07T08:02:16;3.80;99.90
12434;DHT22;6281;49.038;8.372;2022-12-07T08:04:44;3.80;99.90
12434;DHT22;6281;49.038;8.372;2022-12-07T08:07:11;3.90;99.90
12434;DHT22;6281;49.038;8.372;2022-12-07T08:09:39;3.80;99.90
12434;DHT22;6281;49.038;8.372;2022-12-07T08:12:06;3.80;99.90
12434;DHT22;6281;49.038;8.372;2022-12-07T08:14:33;3.80;99.90
12434;DHT22;6281;49.038;8.372;2022-12-07T08:17:02;3.80;99.90
12434;DHT22;6281;49.038;8.372;2022-12-07T08:19:29;3.90;99.90
12434;DHT22;6281;49.038;8.372;2022-12-07T08:21:56;3.90;99.90
12434;DHT22;6281;49.038;8.372;2022-12-07T08:24:23;3.80;99.90
12434;DHT22;6281;49.038;8.372;2022-12-07T08:26:51;3.90;99.90
12434;DHT22;6281;49.038;8.372;2022-12-07T08:29:18;3.80;99.90
12434;DHT22;6281;49.038;8.372;2022-12-07T08:31:45;3.90;99.90
12434;DHT22;6281;49.038;8.372;2022-12-07T08:34:13;3.90;99.90
12434;DHT22;6281;49.038;8.372;2022-12-07T08:36:40;3.90;99.90
12434;DHT22;6281;49.038;8.372;2022-12-07T08:39:07;3.90;99.90
12434;DHT22;6281;49.038;8.372;2022-12-07T08:41:34;3.90;99.90
12434;DHT22;6281;49.038;8.372;2022-12-07T08:44:02;3.80;99.90
12434;DHT22;6281;49.038;8.372;2022-12-07T08:46:32;3.90;99.90
12434;DHT22;6281;49.038;8.372;2022-12-07T08:49:04;3.90;99.90
12434;DHT22;6281;49.038;8.372;2022-12-07T08:51:33;3.90;99.90
12434;DHT22;6281;49.038;8.372;2022-12-07T08:54:04;3.90;99.90
12434;DHT22;6281;49.038;8.372;2022-12-07T08:56:33;3.80;99.90
12434;DHT22;6281;49.038;8.372;2022-12-07T08:59:00;4.00;99.90
12434;DHT22;6281;49.038;8.372;2022-12-07T09:01:28;3.90;99.90
12434;DHT22;6281;49.038;8.372;2022-12-07T09:03:55;4.00;99.90
12434;DHT22;6281;49.038;8.372;2022-12-07T09:06:22;3.90;99.90
12434;DHT22;6281;49.038;8.372;2022-12-07T09:08:53;4.00;99.90
12434;DHT22;6281;49.038;8.372;2022-12-07T09:11:21;4.10;99.90
12434;DHT22;6281;49.038;8.372;2022-12-07T09:13:47;4.10;99.90
12434;DHT22;6281;49.038;8.372;2022-12-07T09:16:14;4.10;99.90
12434;DHT22;6281;49.038;8.372;2022-12-07T09:18:41;4.10;99.90
12434;DHT22;6281;49.038;8.372;2022-12-07T09:21:08;4.30;99.90
12434;DHT22;6281;49.038;8.372;2022-12-07T09:23:35;4.30;99.90
12434;DHT22;6281;49.038;8.372;2022-12-07T09:26:05;4.20;99.90
12434;DHT22;6281;49.038;8.372;2022-12-07T09:28:31;4.20;99.90
12434;DHT22;6281;49.038;8.372;2022-12-07T09:30:59;4.30;99.90
12434;DHT22;6281;49.038;8.372;2022-12-07T09:33:26;4.30;99.90
12434;DHT22;6281;49.038;8.372;2022-12-07T09:35:53;4.30;99.90
12434;DHT22;6281;49.038;8.372;2022-12-07T09:38:20;4.30;99.90
12434;DHT22;6281;49.038;8.372;2022-12-07T09:40:48;4.40;99.90
12434;DHT22;6281;49.038;8.372;2022-12-07T09:43:19;4.30;99.90
12434;DHT22;6281;49.038;8.372;2022-12-07T09:45:48;4.40;99.90
12434;DHT22;6281;49.038;8.372;2022-12-07T09:48:18;4.40;99.90
12434;DHT22;6281;49.038;8.372;2022-12-07T09:50:46;4.60;99.90
12434;DHT22;6281;49.038;8.372;2022-12-07T09:53:16;4.50;99.90
12434;DHT22;6281;49.038;8.372;2022-12-07T09:55:46;4.50;99.90
12434;DHT22;6281;49.038;8.372;2022-12-07T09:58:21;4.50;99.90
12434;DHT22;6281;49.038;8.372;2022-12-07T10:00:49;4.70;99.90
12434;DHT22;6281;49.038;8.372;2022-12-07T10:03:16;4.70;99.90
12434;DHT22;6281;49.038;8.372;2022-12-07T10:05:45;4.80;99.90
12434;DHT22;6281;49.038;8.372;2022-12-07T10:08:14;4.90;99.90
12434;DHT22;6281;49.038;8.372;2022-12-07T10:10:43;4.80;99.90
12434;DHT22;6281;49.038;8.372;2022-12-07T10:13:11;5.00;99.90
12434;DHT22;6281;49.038;8.372;2022-12-07T10:15:58;5.00;99.90
12434;DHT22;6281;49.038;8.372;2022-12-07T10:18:30;4.90;99.90
12434;DHT22;6281;49.038;8.372;2022-12-07T10:21:16;4.90;99.90
12434;DHT22;6281;49.038;8.372;2022-12-07T10:24:00;4.70;99.90
12434;DHT22;6281;49.038;8.372;2022-12-07T10:26:30;4.70;99.90
12434;DHT22;6281;49.038;8.372;2022-12-07T10:28:59;4.80;99.90
12434;DHT22;6281;49.038;8.372;2022-12-07T10:31:29;4.70;99.90
12434;DHT22;6281;49.038;8.372;2022-12-07T10:33:57;4.80;99.90
12434;DHT22;6281;49.038;8.372;2022-12-07T10:36:27;4.80;99.90
12434;DHT22;6281;49.038;8.372;2022-12-07T10:39:00;4.80;99.90
12434;DHT22;6281;49.038;8.372;2022-12-07T10:41:27;4.60;99.90
12434;DHT22;6281;49.038;8.372;2022-12-07T10:43:56;4.60;99.90
12434;DHT22;6281;49.038;8.372;2022-12-07T10:47:13;4.60;99.90
12434;DHT22;6281;49.038;8.372;2022-12-07T10:52:48;4.50;99.90
12434;DHT22;6281;49.038;8.372;2022-12-07T10:55:23;4.60;99.90
12434;DHT22;6281;49.038;8.372;2022-12-07T10:58:21;4.60;99.90
12434;DHT22;6281;49.038;8.372;2022-12-07T11:00:56;4.60;99.90
12434;DHT22;6281;49.038;8.372;2022-12-07T11:03:47;4.60;99.90
12434;DHT22;6281;49.038;8.372;2022-12-07T11:06:26;4.60;99.90
12434;DHT22;6281;49.038;8.372;2022-12-07T11:09:03;4.60;99.90
12434;DHT22;6281;49.038;8.372;2022-12-07T11:11:35;4.70;99.90
12434;DHT22;6281;49.038;8.372;2022-12-07T11:14:13;4.70;99.90
12434;DHT22;6281;49.038;8.372;2022-12-07T11:16:53;4.80;99.90
12434;DHT22;6281;49.038;8.372;2022-12-07T11:19:43;4.80;99.90
12434;DHT22;6281;49.038;8.372;2022-12-07T11:22:20;4.90;99.90
12434;DHT22;6281;49.038;8.372;2022-12-07T11:24:54;5.00;99.90
12434;DHT22;6281;49.038;8.372;2022-12-07T11:27:30;4.90;99.90
12434;DHT22;6281;49.038;8.372;2022-12-07T11:30:14;4.90;99.90
12434;DHT22;6281;49.038;8.372;2022-12-07T11:32:57;4.80;99.90
12434;DHT22;6281;49.038;8.372;2022-12-07T11:35:38;4.80;99.90
12434;DHT22;6281;49.038;8.372;2022-12-07T11:38:13;4.90;99.90
12434;DHT22;6281;49.038;8.372;2022-12-07T11:40:43;4.80;99.90
12434;DHT22;6281;49.038;8.372;2022-12-07T11:43:17;4.80;99.90
12434;DHT22;6281;49.038;8.372;2022-12-07T11:45:50;4.80;99.90
12434;DHT22;6281;49.038;8.372;2022-12-07T11:48:22;4.80;99.90
12434;DHT22;6281;49.038;8.372;2022-12-07T11:50:54;4.90;99.90
12434;DHT22;6281;49.038;8.372;2022-12-07T11:53:26;5.00;99.90
12434;DHT22;6281;49.038;8.372;2022-12-07T11:55:57;4.90;99.90
12434;DHT22;6281;49.038;8.372;2022-12-07T11:58:42;4.90;99.90
12434;DHT22;6281;49.038;8.372;2022-12-07T12:01:36;5.00;99.90
12434;DHT22;6281;49.038;8.372;2022-12-07T12:04:16;4.80;99.90
12434;DHT22;6281;49.038;8.372;2022-12-07T12:06:50;4.90;99.90
12434;DHT22;6281;49.038;8.372;2022-12-07T12:09:21;5.10;99.90
12434;DHT22;6281;49.038;8.372;2022-12-07T12:12:16;4.90;99.90
12434;DHT22;6281;49.038;8.372;2022-12-07T12:14:54;5.00;99.90
12434;DHT22;6281;49.038;8.372;2022-12-07T12:17:47;5.00;99.90
12434;DHT22;6281;49.038;8.372;2022-12-07T12:20:22;5.10;99.90
12434;DHT22;6281;49.038;8.372;2022-12-07T12:22:55;5.20;99.90
12434;DHT22;6281;49.038;8.372;2022-12-07T12:25:27;5.10;99.90
12434;DHT22;6281;49.038;8.372;2022-12-07T12:27:56;5.10;99.90
12434;DHT22;6281;49.038;8.372;2022-12-07T12:30:32;5.10;99.90
12434;DHT22;6281;49.038;8.372;2022-12-07T12:33:05;5.00;99.90
12434;DHT22;6281;49.038;8.372;2022-12-07T12:35:33;5.00;99.90
12434;DHT22;6281;49.038;8.372;2022-12-07T12:38:24;5.20;99.90
12434;DHT22;6281;49.038;8.372;2022-12-07T12:40:53;5.20;99.90
12434;DHT22;6281;49.038;8.372;2022-12-07T12:43:46;5.60;99.90
12434;DHT22;6281;49.038;8.372;2022-12-07T12:46:46;5.50;99.90
12434;DHT22;6281;49.038;8.372;2022-12-07T12:49:43;5.30;99.90
12434;DHT22;6281;49.038;8.372;2022-12-07T12:55:22;5.50;99.90
12434;DHT22;6281;49.038;8.372;2022-12-07T13:01:38;5.20;99.90
12434;DHT22;6281;49.038;8.372;2022-12-07T13:04:40;5.10;99.90
12434;DHT22;6281;49.038;8.372;2022-12-07T13:07:49;5.20;99.90
12434;DHT22;6281;49.038;8.372;2022-12-07T13:10:40;5.10;99.90
12434;DHT22;6281;49.038;8.372;2022-12-07T13:13:31;5.10;99.90
12434;DHT22;6281;49.038;8.372;2022-12-07T13:16:37;5.10;99.90
12434;DHT22;6281;49.038;8.372;2022-12-07T13:22:31;5.10;99.90
12434;DHT22;6281;49.038;8.372;2022-12-07T13:25:07;5.30;99.90
12434;DHT22;6281;49.038;8.372;2022-12-07T13:27:37;5.10;99.90
12434;DHT22;6281;49.038;8.372;2022-12-07T13:30:14;5.20;99.90
12434;DHT22;6281;49.038;8.372;2022-12-07T13:32:41;5.20;99.90
12434;DHT22;6281;49.038;8.372;2022-12-07T13:35:32;5.20;99.90
12434;DHT22;6281;49.038;8.372;2022-12-07T13:38:02;5.00;99.90
12434;DHT22;6281;49.038;8.372;2022-12-07T13:40:30;5.10;99.90
12434;DHT22;6281;49.038;8.372;2022-12-07T13:43:00;5.00;99.90
12434;DHT22;6281;49.038;8.372;2022-12-07T13:45:29;5.20;99.90
12434;DHT22;6281;49.038;8.372;2022-12-07T13:48:18;5.20;99.90
12434;DHT22;6281;49.038;8.372;2022-12-07T13:50:53;5.20;99.90
12434;DHT22;6281;49.038;8.372;2022-12-07T13:53:20;5.20;99.90
12434;DHT22;6281;49.038;8.372;2022-12-07T13:55:48;5.30;99.90
12434;DHT22;6281;49.038;8.372;2022-12-07T13:58:16;5.20;99.90
12434;DHT22;6281;49.038;8.372;2022-12-07T14:00:43;5.20;99.90
12434;DHT22;6281;49.038;8.372;2022-12-07T14:03:29;5.30;99.90
12434;DHT22;6281;49.038;8.372;2022-12-07T14:06:23;5.10;99.90
12434;DHT22;6281;49.038;8.372;2022-12-07T14:09:07;5.20;99.90
12434;DHT22;6281;49.038;8.372;2022-12-07T14:11:34;5.10;99.90
12434;DHT22;6281;49.038;8.372;2022-12-07T14:14:03;5.10;99.90
12434;DHT22;6281;49.038;8.372;2022-12-07T14:16:33;5.10;99.90
12434;DHT22;6281;49.038;8.372;2022-12-07T14:19:03;5.10;99.90
12434;DHT22;6281;49.038;8.372;2022-12-07T14:21:31;5.10;99.90
12434;DHT22;6281;49.038;8.372;2022-12-07T14:24:19;5.00;99.90
12434;DHT22;6281;49.038;8.372;2022-12-07T14:26:47;5.10;99.90
12434;DHT22;6281;49.038;8.372;2022-12-07T14:29:33;5.20;99.90
12434;DHT22;6281;49.038;8.372;2022-12-07T14:32:19;5.10;99.90
12434;DHT22;6281;49.038;8.372;2022-12-07T14:35:00;5.10;99.90
12434;DHT22;6281;49.038;8.372;2022-12-07T14:37:28;5.10;99.90
12434;DHT22;6281;49.038;8.372;2022-12-07T14:39:56;5.10;99.90
12434;DHT22;6281;49.038;8.372;2022-12-07T14:42:26;5.20;99.90
12434;DHT22;6281;49.038;8.372;2022-12-07T14:44:55;4.90;99.90
12434;DHT22;6281;49.038;8.372;2022-12-07T14:47:22;5.00;99.90
12434;DHT22;6281;49.038;8.372;2022-12-07T14:49:49;5.00;99.90
12434;DHT22;6281;49.038;8.372;2022-12-07T14:52:18;5.10;99.90
12434;DHT22;6281;49.038;8.372;2022-12-07T14:54:46;5.10;99.90
12434;DHT22;6281;49.038;8.372;2022-12-07T14:57:13;5.10;99.90
12434;DHT22;6281;49.038;8.372;2022-12-07T14:59:40;5.00;99.90
12434;DHT22;6281;49.038;8.372;2022-12-07T15:02:11;5.00;99.90
12434;DHT22;6281;49.038;8.372;2022-12-07T15:04:39;5.00;99.90
12434;DHT22;6281;49.038;8.372;2022-12-07T15:07:20;4.90;99.90
12434;DHT22;6281;49.038;8.372;2022-12-07T15:09:48;4.90;99.90
12434;DHT22;6281;49.038;8.372;2022-12-07T15:12:14;5.00;99.90
12434;DHT22;6281;49.038;8.372;2022-12-07T15:14:41;5.10;99.90
12434;DHT22;6281;49.038;8.372;2022-12-07T15:17:11;4.90;99.90
12434;DHT22;6281;49.038;8.372;2022-12-07T15:19:38;4.80;99.90
12434;DHT22;6281;49.038;8.372;2022-12-07T15:22:05;4.90;99.90
12434;DHT22;6281;49.038;8.372;2022-12-07T15:24:33;4.90;99.90
12434;DHT22;6281;49.038;8.372;2022-12-07T15:27:00;5.00;99.90
12434;DHT22;6281;49.038;8.372;2022-12-07T15:29:27;4.90;99.90
12434;DHT22;6281;49.038;8.372;2022-12-07T15:31:54;4.80;99.90
12434;DHT22;6281;49.038;8.372;2022-12-07T15:34:23;4.90;99.90
12434;DHT22;6281;49.038;8.372;2022-12-07T15:36:50;4.80;99.90
12434;DHT22;6281;49.038;8.372;2022-12-07T15:39:17;4.80;99.90
12434;DHT22;6281;49.038;8.372;2022-12-07T15:41:44;4.70;99.90
12434;DHT22;6281;49.038;8.372;2022-12-07T15:44:12;4.70;99.90
12434;DHT22;6281;49.038;8.372;2022-12-07T15:46:56;4.70;99.90
12434;DHT22;6281;49.038;8.372;2022-12-07T15:49:25;4.70;99.90
12434;DHT22;6281;49.038;8.372;2022-12-07T15:51:53;4.50;99.90
12434;DHT22;6281;49.038;8.372;2022-12-07T15:54:22;4.50;99.90
12434;DHT22;6281;49.038;8.372;2022-12-07T15:56:49;4.50;99.90
12434;DHT22;6281;49.038;8.372;2022-12-07T15:59:16;4.50;99.90
12434;DHT22;6281;49.038;8.372;2022-12-07T16:01:43;4.60;99.90
12434;DHT22;6281;49.038;8.372;2022-12-07T16:04:10;4.50;99.90
12434;DHT22;6281;49.038;8.372;2022-12-07T16:06:40;4.50;99.90
12434;DHT22;6281;49.038;8.372;2022-12-07T16:09:07;4.40;99.90
12434;DHT22;6281;49.038;8.372;2022-12-07T16:11:34;4.40;99.90
12434;DHT22;6281;49.038;8.372;2022-12-07T16:14:03;4.40;99.90
12434;DHT22;6281;49.038;8.372;2022-12-07T16:16:30;4.40;99.90
12434;DHT22;6281;49.038;8.372;2022-12-07T16:18:57;4.30;99.90
12434;DHT22;6281;49.038;8.372;2022-12-07T16:21:24;4.20;99.90
12434;DHT22;6281;49.038;8.372;2022-12-07T16:23:52;4.20;99.90
12434;DHT22;6281;49.038;8.372;2022-12-07T16:26:21;4.20;99.90
12434;DHT22;6281;49.038;8.372;2022-12-07T16:28:49;4.20;99.90
12434;DHT22;6281;49.038;8.372;2022-12-07T16:31:19;4.30;99.90
12434;DHT22;6281;49.038;8.372;2022-12-07T16:33:47;4.30;99.90
12434;DHT22;6281;49.038;8.372;2022-12-07T16:36:15;4.30;99.90
12434;DHT22;6281;49.038;8.372;2022-12-07T16:38:43;4.30;99.90
12434;DHT22;6281;49.038;8.372;2022-12-07T16:41:11;4.30;99.90
12434;DHT22;6281;49.038;8.372;2022-12-07T16:43:38;4.30;99.90
12434;DHT22;6281;49.038;8.372;2022-12-07T16:46:06;4.40;99.90